Time;durP1;ratioP1;P1;durP2;ratioP2;P2;SDS_P1;SDS_P2;PMS_P1;PMS_P2;Temp;Humidity;BMP_temperature;BMP_pressure;BME280_temperature;BME280_humidity;BME280_pressure;Samples;Min_cycle;Max_cycle;Signal;HPM_P1;HPM_P2
2023/08/12 00:02:19;;;;;;;;;;;19.80;99.90;;;;;;5023512;28;19921;-69
2023/08/12 00:04:46;;;;;;;;;;;19.80;99.90;;;;;;5025533;28;19928;-69
2023/08/12 00:07:13;;;;;;;;;;;19.80;99.90;;;;;;5025227;28;19985;-69
2023/08/12 00:09:39;;;;;;;;;;;19.70;99.90;;;;;;5025658;28;19989;-69
2023/08/12 00:12:06;;;;;;;;;;;19.70;99.90;;;;;;5025618;28;20112;-70
2023/08/12 00:14:34;;;;;;;;;;;19.70;99.90;;;;;;5025284;28;19925;-70
2023/08/12 00:17:02;;;;;;;;;;;19.60;99.90;;;;;;5022453;28;19930;-69
2023/08/12 00:19:29;;;;;;;;;;;19.60;99.90;;;;;;5025464;28;19961;-69
2023/08/12 00:21:55;;;;;;;;;;;19.60;99.90;;;;;;5025477;28;19928;-69
2023/08/12 00:24:22;;;;;;;;;;;19.50;99.90;;;;;;5024971;28;19921;-69
2023/08/12 00:26:49;;;;;;;;;;;19.50;99.90;;;;;;5022463;28;20008;-69
2023/08/12 00:29:15;;;;;;;;;;;19.40;99.90;;;;;;5025064;28;19945;-70
2023/08/12 00:31:43;;;;;;;;;;;19.40;99.90;;;;;;5025184;28;19921;-69
2023/08/12 00:34:10;;;;;;;;;;;19.40;99.90;;;;;;5024897;28;19988;-69
2023/08/12 00:36:37;;;;;;;;;;;19.40;99.90;;;;;;5024499;28;19952;-69
2023/08/12 00:39:03;;;;;;;;;;;19.30;99.90;;;;;;5024597;28;20209;-69
2023/08/12 00:41:30;;;;;;;;;;;19.30;99.90;;;;;;5025015;28;19921;-69
2023/08/12 00:43:56;;;;;;;;;;;19.30;99.90;;;;;;5024998;28;19928;-69
2023/08/12 00:46:24;;;;;;;;;;;19.20;99.90;;;;;;5024726;28;20185;-69
2023/08/12 00:48:52;;;;;;;;;;;19.20;99.90;;;;;;5024138;28;19922;-70
2023/08/12 00:51:18;;;;;;;;;;;19.20;99.90;;;;;;5024862;28;19922;-69
2023/08/12 00:53:46;;;;;;;;;;;19.20;99.90;;;;;;5024619;28;20200;-69
2023/08/12 00:56:13;;;;;;;;;;;19.20;99.90;;;;;;5024745;28;19928;-69
2023/08/12 00:58:40;;;;;;;;;;;19.10;99.90;;;;;;5024076;28;20016;-69
2023/08/12 01:01:09;;;;;;;;;;;19.10;99.90;;;;;;5022792;28;19921;-69
2023/08/12 01:03:36;;;;;;;;;;;19.10;99.90;;;;;;5005089;28;19988;-69
2023/08/12 01:06:04;;;;;;;;;;;19.00;99.90;;;;;;5020314;28;19921;-69
2023/08/12 01:08:31;;;;;;;;;;;19.00;99.90;;;;;;5024179;28;19988;-70
2023/08/12 01:11:01;;;;;;;;;;;19.00;99.90;;;;;;5024631;28;19943;-70
2023/08/12 01:13:31;;;;;;;;;;;18.90;99.90;;;;;;5024655;28;19953;-70
2023/08/12 01:15:58;;;;;;;;;;;18.90;99.90;;;;;;5024363;28;19922;-69
2023/08/12 01:18:25;;;;;;;;;;;18.80;99.90;;;;;;5023931;28;20243;-70
2023/08/12 01:20:52;;;;;;;;;;;18.90;99.90;;;;;;5023996;28;20224;-70
2023/08/12 01:23:20;;;;;;;;;;;18.80;99.90;;;;;;5024250;28;19992;-69
2023/08/12 01:25:47;;;;;;;;;;;18.80;99.90;;;;;;5023340;28;19928;-70
2023/08/12 01:28:14;;;;;;;;;;;18.80;99.90;;;;;;5023929;28;19921;-70
2023/08/12 01:30:44;;;;;;;;;;;18.80;99.90;;;;;;5024099;28;19921;-69
2023/08/12 01:33:15;;;;;;;;;;;18.70;99.90;;;;;;5024322;28;19964;-69
2023/08/12 01:35:44;;;;;;;;;;;18.70;99.90;;;;;;5024141;28;19960;-69
2023/08/12 01:38:11;;;;;;;;;;;18.70;99.90;;;;;;5023628;28;19928;-69
2023/08/12 01:40:40;;;;;;;;;;;18.60;99.90;;;;;;5023952;28;19927;-69
2023/08/12 01:43:08;;;;;;;;;;;18.60;99.90;;;;;;5024169;28;20094;-69
2023/08/12 01:45:34;;;;;;;;;;;18.60;99.90;;;;;;5024035;28;19921;-69
2023/08/12 01:48:01;;;;;;;;;;;18.60;99.90;;;;;;5023343;28;19928;-69
2023/08/12 01:50:27;;;;;;;;;;;18.50;99.90;;;;;;5024062;28;19967;-69
2023/08/12 01:52:54;;;;;;;;;;;18.50;99.90;;;;;;5023708;28;19989;-69
2023/08/12 01:55:21;;;;;;;;;;;18.50;99.90;;;;;;5023780;28;19921;-69
2023/08/12 01:57:49;;;;;;;;;;;18.40;99.90;;;;;;5023495;28;20120;-69
2023/08/12 02:00:16;;;;;;;;;;;18.40;99.90;;;;;;5023915;28;19928;-70
2023/08/12 02:02:45;;;;;;;;;;;18.40;99.90;;;;;;5023990;28;19985;-69
2023/08/12 02:05:12;;;;;;;;;;;18.30;99.90;;;;;;5023579;28;19964;-69
2023/08/12 02:07:39;;;;;;;;;;;18.30;99.90;;;;;;5023238;28;19984;-69
2023/08/12 02:10:06;;;;;;;;;;;18.30;99.90;;;;;;5023986;28;20212;-69
2023/08/12 02:12:32;;;;;;;;;;;18.30;99.90;;;;;;5023796;28;19993;-69
2023/08/12 02:15:00;;;;;;;;;;;18.30;99.90;;;;;;5024353;28;19964;-69
2023/08/12 02:17:27;;;;;;;;;;;18.30;99.90;;;;;;5025115;28;19989;-69
2023/08/12 02:19:54;;;;;;;;;;;18.30;99.90;;;;;;5025743;28;19984;-69
2023/08/12 02:22:20;;;;;;;;;;;18.30;99.90;;;;;;5024754;28;19980;-69
2023/08/12 02:24:47;;;;;;;;;;;18.20;99.90;;;;;;5023305;28;19985;-69
2023/08/12 02:27:13;;;;;;;;;;;18.20;99.90;;;;;;5023148;28;19959;-69
2023/08/12 02:29:40;;;;;;;;;;;18.20;99.90;;;;;;5023342;28;19921;-69
2023/08/12 02:32:08;;;;;;;;;;;18.10;99.90;;;;;;5023103;28;20213;-69
2023/08/12 02:34:34;;;;;;;;;;;18.10;99.90;;;;;;5023551;28;19930;-69
2023/08/12 02:37:01;;;;;;;;;;;18.10;99.90;;;;;;5022998;28;20086;-69
2023/08/12 02:39:28;;;;;;;;;;;18.10;99.90;;;;;;5027256;28;19928;-69
2023/08/12 02:41:54;;;;;;;;;;;18.00;99.90;;;;;;5027250;28;19928;-70
2023/08/12 02:44:21;;;;;;;;;;;18.00;99.90;;;;;;5027092;28;19925;-69
2023/08/12 02:46:47;;;;;;;;;;;17.90;99.90;;;;;;5026660;28;19928;-69
2023/08/12 02:49:15;;;;;;;;;;;17.90;99.90;;;;;;5027212;28;19928;-69
2023/08/12 02:51:42;;;;;;;;;;;17.90;99.90;;;;;;5027012;28;19928;-70
2023/08/12 02:54:09;;;;;;;;;;;17.80;99.90;;;;;;5027140;28;19921;-69
2023/08/12 02:56:35;;;;;;;;;;;17.80;99.90;;;;;;5026268;28;19921;-69
2023/08/12 02:59:02;;;;;;;;;;;17.80;99.90;;;;;;5026990;28;19989;-69
2023/08/12 03:01:29;;;;;;;;;;;17.80;99.90;;;;;;5024635;28;19928;-69
2023/08/12 03:03:56;;;;;;;;;;;17.80;99.90;;;;;;5026929;28;19992;-69
2023/08/12 03:06:24;;;;;;;;;;;17.80;99.90;;;;;;5026760;28;19931;-69
2023/08/12 03:08:51;;;;;;;;;;;17.70;99.90;;;;;;5026398;28;19988;-69
2023/08/12 03:11:18;;;;;;;;;;;17.70;99.90;;;;;;5026817;28;20093;-69
2023/08/12 03:13:45;;;;;;;;;;;17.70;99.90;;;;;;5026755;28;19921;-69
2023/08/12 03:16:12;;;;;;;;;;;17.70;99.90;;;;;;5026705;28;19988;-69
2023/08/12 03:18:39;;;;;;;;;;;17.70;99.90;;;;;;5026393;28;19964;-70
2023/08/12 03:21:06;;;;;;;;;;;17.70;99.90;;;;;;5026612;28;19921;-69
2023/08/12 03:23:34;;;;;;;;;;;17.60;99.90;;;;;;5026322;28;19922;-69
2023/08/12 03:26:00;;;;;;;;;;;17.70;99.90;;;;;;5026214;28;19929;-69
2023/08/12 03:28:27;;;;;;;;;;;17.70;99.90;;;;;;5026031;28;19921;-69
2023/08/12 03:30:54;;;;;;;;;;;17.60;99.90;;;;;;5026286;28;20260;-69
2023/08/12 03:33:20;;;;;;;;;;;17.60;99.90;;;;;;5026388;28;19922;-70
2023/08/12 03:35:47;;;;;;;;;;;17.70;99.90;;;;;;5026179;28;19929;-69
2023/08/12 03:38:14;;;;;;;;;;;17.60;99.90;;;;;;5025884;28;19993;-70
2023/08/12 03:40:42;;;;;;;;;;;17.60;99.90;;;;;;5026386;28;19993;-69
2023/08/12 03:43:09;;;;;;;;;;;17.60;99.90;;;;;;5026487;28;19993;-69
2023/08/12 03:45:40;;;;;;;;;;;17.60;99.90;;;;;;5026182;28;19996;-69
2023/08/12 03:48:07;;;;;;;;;;;17.60;99.90;;;;;;5025392;28;19960;-69
2023/08/12 03:50:34;;;;;;;;;;;17.60;99.90;;;;;;5026118;28;19993;-69
2023/08/12 03:53:00;;;;;;;;;;;17.60;99.90;;;;;;5025923;28;19921;-69
2023/08/12 03:55:27;;;;;;;;;;;17.60;99.90;;;;;;5025896;28;20121;-70
2023/08/12 03:57:55;;;;;;;;;;;17.50;99.90;;;;;;5025509;28;19992;-69
2023/08/12 04:00:22;;;;;;;;;;;17.50;99.90;;;;;;5026044;28;19922;-69
2023/08/12 04:02:50;;;;;;;;;;;17.50;99.90;;;;;;5023890;28;19922;-68
2023/08/12 04:05:17;;;;;;;;;;;17.50;99.90;;;;;;5025841;28;19921;-69
2023/08/12 04:07:43;;;;;;;;;;;17.40;99.90;;;;;;5025062;28;19944;-70
2023/08/12 04:10:10;;;;;;;;;;;17.50;99.90;;;;;;5025627;28;19928;-69
2023/08/12 04:12:37;;;;;;;;;;;17.40;99.90;;;;;;5025435;28;19996;-69
2023/08/12 04:15:06;;;;;;;;;;;17.50;99.90;;;;;;5025527;28;20086;-69
2023/08/12 04:17:33;;;;;;;;;;;17.40;99.90;;;;;;5025150;28;19921;-68
2023/08/12 04:20:00;;;;;;;;;;;17.40;99.90;;;;;;5025599;28;19960;-69
2023/08/12 04:22:27;;;;;;;;;;;17.50;99.90;;;;;;5025213;28;19933;-69
2023/08/12 04:24:54;;;;;;;;;;;17.50;99.90;;;;;;5024738;28;19928;-69
2023/08/12 04:27:21;;;;;;;;;;;17.40;99.90;;;;;;5025101;28;19941;-70
2023/08/12 04:29:47;;;;;;;;;;;17.50;99.90;;;;;;5025118;28;20328;-69
2023/08/12 04:32:15;;;;;;;;;;;17.50;99.90;;;;;;5025024;28;20209;-70
2023/08/12 04:34:42;;;;;;;;;;;17.50;99.90;;;;;;5025298;28;19927;-69
2023/08/12 04:37:08;;;;;;;;;;;17.50;99.90;;;;;;5024577;28;20264;-69
2023/08/12 04:39:35;;;;;;;;;;;17.50;99.90;;;;;;5025345;28;19921;-69
2023/08/12 04:42:02;;;;;;;;;;;17.50;99.90;;;;;;5024921;28;19922;-69
2023/08/12 04:44:28;;;;;;;;;;;17.50;99.90;;;;;;5025187;28;19956;-69
2023/08/12 04:46:55;;;;;;;;;;;17.50;99.90;;;;;;5024330;28;19928;-70
2023/08/12 04:49:23;;;;;;;;;;;17.50;99.90;;;;;;5025143;28;19943;-69
2023/08/12 04:51:52;;;;;;;;;;;17.50;99.90;;;;;;5024931;28;19921;-69
2023/08/12 04:54:18;;;;;;;;;;;17.50;99.90;;;;;;5025028;28;19949;-69
2023/08/12 04:56:45;;;;;;;;;;;17.50;99.90;;;;;;5024490;28;19922;-69
2023/08/12 04:59:11;;;;;;;;;;;17.50;99.90;;;;;;5024553;28;20320;-70
2023/08/12 05:01:39;;;;;;;;;;;17.50;99.90;;;;;;5022381;28;20004;-69
2023/08/12 05:04:06;;;;;;;;;;;17.60;99.90;;;;;;5024811;28;19988;-69
2023/08/12 05:06:34;;;;;;;;;;;17.60;99.90;;;;;;5024316;28;20069;-70
2023/08/12 05:09:00;;;;;;;;;;;17.60;99.90;;;;;;5024602;28;19921;-69
2023/08/12 05:11:27;;;;;;;;;;;17.70;99.90;;;;;;5024444;28;19922;-69
2023/08/12 05:13:54;;;;;;;;;;;17.80;99.90;;;;;;5024614;28;19921;-70
2023/08/12 05:16:20;;;;;;;;;;;17.80;99.90;;;;;;5024414;28;19922;-69
2023/08/12 05:18:47;;;;;;;;;;;17.90;99.90;;;;;;5024151;28;19956;-69
2023/08/12 05:21:13;;;;;;;;;;;17.90;99.90;;;;;;5024249;28;20112;-69
2023/08/12 05:23:41;;;;;;;;;;;18.00;99.90;;;;;;5024343;28;19927;-70
2023/08/12 05:26:09;;;;;;;;;;;18.00;99.90;;;;;;5022203;28;19928;-70
2023/08/12 05:28:36;;;;;;;;;;;18.10;99.90;;;;;;5023856;28;19922;-70
2023/08/12 05:31:02;;;;;;;;;;;18.10;99.90;;;;;;5024279;28;19928;-69
2023/08/12 05:33:29;;;;;;;;;;;18.10;99.90;;;;;;5023948;28;20231;-69
2023/08/12 05:35:55;;;;;;;;;;;18.10;99.90;;;;;;5023974;28;19922;-70
2023/08/12 05:38:22;;;;;;;;;;;18.20;99.90;;;;;;5023610;28;19984;-69
2023/08/12 05:40:50;;;;;;;;;;;18.20;99.90;;;;;;5023835;28;20004;-69
2023/08/12 05:43:17;;;;;;;;;;;18.20;99.90;;;;;;5024190;28;19989;-70
2023/08/12 05:45:43;;;;;;;;;;;18.20;99.90;;;;;;5023724;28;20205;-69
2023/08/12 05:48:10;;;;;;;;;;;18.30;99.90;;;;;;5023568;28;19988;-70
2023/08/12 05:50:36;;;;;;;;;;;18.40;99.90;;;;;;5023852;28;19921;-69
2023/08/12 05:53:03;;;;;;;;;;;18.40;99.90;;;;;;5023868;28;19921;-70
2023/08/12 05:55:30;;;;;;;;;;;18.40;99.90;;;;;;5023931;28;19921;-69
2023/08/12 05:57:57;;;;;;;;;;;18.50;99.90;;;;;;5023504;28;19981;-70
2023/08/12 06:00:24;;;;;;;;;;;18.50;99.90;;;;;;5023964;28;19984;-69
2023/08/12 06:02:54;;;;;;;;;;;18.50;99.90;;;;;;5021866;28;19921;-70
2023/08/12 06:05:20;;;;;;;;;;;18.60;99.90;;;;;;5023629;28;19944;-69
2023/08/12 06:07:47;;;;;;;;;;;18.60;99.90;;;;;;5023511;28;19928;-69
2023/08/12 06:10:14;;;;;;;;;;;18.60;99.90;;;;;;5023773;28;19960;-69
2023/08/12 06:12:40;;;;;;;;;;;18.60;99.90;;;;;;5026534;28;19921;-69
2023/08/12 06:15:08;;;;;;;;;;;18.60;99.90;;;;;;5027750;28;20000;-69
2023/08/12 06:17:35;;;;;;;;;;;18.70;99.90;;;;;;5027237;28;19922;-69
2023/08/12 06:20:02;;;;;;;;;;;18.70;99.90;;;;;;5027479;28;19921;-70
2023/08/12 06:22:28;;;;;;;;;;;18.80;99.90;;;;;;5007878;28;19921;-69
2023/08/12 06:24:55;;;;;;;;;;;18.80;99.90;;;;;;5025944;28;19928;-69
2023/08/12 06:27:22;;;;;;;;;;;18.80;99.90;;;;;;5027197;28;19921;-69
2023/08/12 06:29:48;;;;;;;;;;;18.90;99.90;;;;;;5027106;28;19927;-69
2023/08/12 06:32:16;;;;;;;;;;;19.00;99.90;;;;;;5027277;28;19967;-70
2023/08/12 06:34:43;;;;;;;;;;;19.00;99.90;;;;;;5027436;28;19985;-70
2023/08/12 06:37:09;;;;;;;;;;;19.10;99.90;;;;;;5036471;28;19921;-69
2023/08/12 06:39:36;;;;;;;;;;;19.10;99.90;;;;;;5027484;28;19985;-69
2023/08/12 06:42:03;;;;;;;;;;;19.20;99.90;;;;;;5027404;28;20013;-69
2023/08/12 06:44:29;;;;;;;;;;;19.30;99.90;;;;;;5027179;28;19928;-70
2023/08/12 06:46:56;;;;;;;;;;;19.30;99.90;;;;;;5026785;28;20112;-69
2023/08/12 06:49:24;;;;;;;;;;;19.40;99.90;;;;;;5027251;28;19928;-69
2023/08/12 06:51:51;;;;;;;;;;;19.50;99.90;;;;;;5027174;28;19947;-70
2023/08/12 06:54:18;;;;;;;;;;;19.60;99.90;;;;;;5027016;28;19929;-69
2023/08/12 06:56:44;;;;;;;;;;;19.70;99.90;;;;;;5026181;28;19928;-69
2023/08/12 06:59:11;;;;;;;;;;;19.70;99.90;;;;;;5027100;28;19960;-70
2023/08/12 07:01:38;;;;;;;;;;;19.80;99.90;;;;;;5024541;28;19929;-70
2023/08/12 07:04:05;;;;;;;;;;;20.00;99.90;;;;;;5027216;28;19960;-72
2023/08/12 07:06:33;;;;;;;;;;;20.10;99.90;;;;;;5026233;28;19921;-71
2023/08/12 07:08:59;;;;;;;;;;;20.20;99.90;;;;;;5026966;28;19984;-71
2023/08/12 07:11:26;;;;;;;;;;;20.30;99.90;;;;;;5026839;28;19928;-70
2023/08/12 07:13:53;;;;;;;;;;;20.40;99.90;;;;;;5026922;28;19921;-70
2023/08/12 07:16:19;;;;;;;;;;;20.50;99.90;;;;;;5026653;28;19984;-70
2023/08/12 07:18:46;;;;;;;;;;;20.50;99.90;;;;;;5026081;28;19952;-70
2023/08/12 07:21:12;;;;;;;;;;;20.60;99.90;;;;;;5026369;28;19996;-70
2023/08/12 07:23:40;;;;;;;;;;;20.60;99.90;;;;;;5025895;28;19992;-71
2023/08/12 07:26:08;;;;;;;;;;;20.70;99.90;;;;;;5023487;28;19921;-70
2023/08/12 07:28:35;;;;;;;;;;;20.80;99.90;;;;;;5025878;28;19929;-70
2023/08/12 07:31:01;;;;;;;;;;;20.90;99.90;;;;;;5026448;28;19988;-70
2023/08/12 07:33:28;;;;;;;;;;;20.90;99.90;;;;;;5026487;28;19921;-72
2023/08/12 07:35:54;;;;;;;;;;;20.90;99.90;;;;;;5026359;28;19928;-70
2023/08/12 07:38:21;;;;;;;;;;;20.90;99.90;;;;;;5025694;28;19921;-70
2023/08/12 07:40:50;;;;;;;;;;;21.00;99.90;;;;;;5025903;28;20212;-70
2023/08/12 07:43:17;;;;;;;;;;;21.00;99.90;;;;;;5026105;28;19925;-70
2023/08/12 07:45:43;;;;;;;;;;;21.00;99.90;;;;;;5025630;28;19968;-70
2023/08/12 07:48:10;;;;;;;;;;;21.00;99.90;;;;;;5025375;28;19921;-70
2023/08/12 07:50:36;;;;;;;;;;;21.00;99.90;;;;;;5026244;28;19943;-70
2023/08/12 07:53:03;;;;;;;;;;;21.10;99.90;;;;;;5026094;28;19993;-70
2023/08/12 07:55:30;;;;;;;;;;;21.20;99.90;;;;;;5025917;28;19929;-71
2023/08/12 07:57:58;;;;;;;;;;;21.20;99.90;;;;;;5025088;28;20205;-70
2023/08/12 08:00:24;;;;;;;;;;;21.20;99.90;;;;;;5025980;28;19992;-70
2023/08/12 08:02:54;;;;;;;;;;;21.20;99.90;;;;;;5023119;28;19921;-70
2023/08/12 08:05:21;;;;;;;;;;;21.20;99.90;;;;;;5006205;28;19988;-71
2023/08/12 08:07:47;;;;;;;;;;;21.30;99.90;;;;;;5005414;28;19988;-70
2023/08/12 08:10:14;;;;;;;;;;;21.40;99.90;;;;;;5020013;28;19921;-71
2023/08/12 08:12:41;;;;;;;;;;;21.40;99.90;;;;;;5025516;28;19928;-70
2023/08/12 08:15:09;;;;;;;;;;;21.60;99.90;;;;;;5018314;28;19928;-70
2023/08/12 08:17:36;;;;;;;;;;;21.70;99.90;;;;;;5021791;28;19986;-71
2023/08/12 08:20:05;;;;;;;;;;;21.90;99.90;;;;;;5025739;28;19927;-71
2023/08/12 08:22:31;;;;;;;;;;;22.00;99.90;;;;;;5024258;28;19921;-72
2023/08/12 08:24:58;;;;;;;;;;;22.00;99.90;;;;;;5025239;28;19985;-75
2023/08/12 08:27:25;;;;;;;;;;;22.10;99.90;;;;;;5024957;28;19949;-74
2023/08/12 08:29:51;;;;;;;;;;;22.10;99.90;;;;;;5025611;28;19989;-74
2023/08/12 08:32:19;;;;;;;;;;;22.10;99.90;;;;;;5025762;28;19943;-74
2023/08/12 08:34:46;;;;;;;;;;;22.10;99.90;;;;;;5024680;28;20142;-74
2023/08/12 08:37:38;;;;;;;;;;;22.20;99.90;;;;;;5022015;28;19993;-73
2023/08/12 08:40:05;;;;;;;;;;;22.30;99.90;;;;;;5025628;28;19984;-73
2023/08/12 08:42:32;;;;;;;;;;;22.30;99.90;;;;;;5025262;28;19960;-73
2023/08/12 08:45:01;;;;;;;;;;;22.40;99.90;;;;;;5025071;28;19957;-75
2023/08/12 08:47:29;;;;;;;;;;;22.50;99.90;;;;;;5024475;28;19921;-74
2023/08/12 08:49:56;;;;;;;;;;;22.60;99.90;;;;;;5023663;28;20272;-75
2023/08/12 08:52:22;;;;;;;;;;;22.70;99.90;;;;;;5023470;28;19925;-74
2023/08/12 08:54:49;;;;;;;;;;;22.70;99.90;;;;;;5023010;28;19922;-74
2023/08/12 08:57:16;;;;;;;;;;;22.80;99.90;;;;;;5015830;28;19928;-74
2023/08/12 08:59:42;;;;;;;;;;;22.90;99.90;;;;;;5024849;28;19921;-74
2023/08/12 09:02:14;;;;;;;;;;;22.90;99.90;;;;;;5020049;28;19961;-74
2023/08/12 09:04:42;;;;;;;;;;;23.00;99.90;;;;;;5023116;28;19969;-74
2023/08/12 09:07:09;;;;;;;;;;;23.00;99.90;;;;;;5021329;28;19929;-74
2023/08/12 09:09:36;;;;;;;;;;;23.10;99.90;;;;;;5007638;28;20206;-75
2023/08/12 09:12:04;;;;;;;;;;;23.20;99.90;;;;;;5023809;28;19921;-70
2023/08/12 09:14:30;;;;;;;;;;;23.20;99.90;;;;;;5024245;28;19928;-70
2023/08/12 09:16:58;;;;;;;;;;;23.20;99.90;;;;;;5012856;28;19930;-71
2023/08/12 09:19:25;;;;;;;;;;;23.30;99.90;;;;;;5004875;28;20098;-71
2023/08/12 09:21:54;;;;;;;;;;;23.30;99.90;;;;;;5012903;28;19984;-72
2023/08/12 09:24:24;;;;;;;;;;;23.40;99.90;;;;;;5022667;28;19992;-70
2023/08/12 09:26:52;;;;;;;;;;;23.50;99.90;;;;;;5013338;28;19937;-72
2023/08/12 09:29:18;;;;;;;;;;;23.60;99.90;;;;;;5023959;28;20094;-71
2023/08/12 09:31:45;;;;;;;;;;;23.60;99.90;;;;;;5023889;28;19928;-71
2023/08/12 09:34:12;;;;;;;;;;;23.70;99.90;;;;;;5024360;28;19921;-71
2023/08/12 09:36:38;;;;;;;;;;;23.80;99.90;;;;;;5023557;28;19960;-72
2023/08/12 09:39:09;;;;;;;;;;;24.00;99.90;;;;;;5023945;28;19952;-70
2023/08/12 09:41:35;;;;;;;;;;;24.10;99.90;;;;;;5021811;28;20275;-69
2023/08/12 09:44:02;;;;;;;;;;;24.30;99.90;;;;;;5024061;28;19949;-70
2023/08/12 09:46:29;;;;;;;;;;;24.50;99.90;;;;;;5023039;28;20224;-70
2023/08/12 09:48:56;;;;;;;;;;;24.60;99.90;;;;;;5023450;28;19988;-70
2023/08/12 09:51:23;;;;;;;;;;;24.70;99.90;;;;;;5023071;28;19921;-70
2023/08/12 09:53:50;;;;;;;;;;;24.90;99.90;;;;;;5024095;28;19921;-69
2023/08/12 09:56:19;;;;;;;;;;;25.10;99.90;;;;;;5022332;28;20291;-71
2023/08/12 09:58:49;;;;;;;;;;;25.30;99.90;;;;;;5022709;28;20280;-70
2023/08/12 10:01:18;;;;;;;;;;;25.40;99.90;;;;;;5023940;28;19949;-70
2023/08/12 10:03:48;;;;;;;;;;;25.60;99.90;;;;;;5023662;28;19996;-70
2023/08/12 10:06:15;;;;;;;;;;;25.80;99.90;;;;;;5023671;28;19988;-70
2023/08/12 10:08:41;;;;;;;;;;;25.90;99.90;;;;;;5022805;28;20212;-70
2023/08/12 10:11:08;;;;;;;;;;;26.00;99.90;;;;;;5023854;28;19988;-71
2023/08/12 10:13:37;;;;;;;;;;;26.10;99.90;;;;;;5023777;28;19964;-70
2023/08/12 10:16:04;;;;;;;;;;;26.20;99.90;;;;;;5023581;28;20199;-70
2023/08/12 10:18:31;;;;;;;;;;;26.30;99.90;;;;;;5023165;28;19993;-70
2023/08/12 10:20:58;;;;;;;;;;;26.40;99.90;;;;;;5023764;28;20004;-70
2023/08/12 10:23:25;;;;;;;;;;;26.40;99.90;;;;;;5023782;28;20098;-70
2023/08/12 10:25:54;;;;;;;;;;;26.40;99.90;;;;;;5023137;28;19921;-72
2023/08/12 10:28:21;;;;;;;;;;;26.40;99.90;;;;;;5022931;28;19921;-70
2023/08/12 10:30:49;;;;;;;;;;;26.50;99.90;;;;;;5003940;28;19922;-70
2023/08/12 10:33:16;;;;;;;;;;;26.70;99.90;;;;;;5021903;28;19952;-71
2023/08/12 10:35:47;;;;;;;;;;;26.90;99.90;;;;;;5023205;28;19922;-69
2023/08/12 10:38:18;;;;;;;;;;;27.00;99.90;;;;;;5022824;28;19945;-70
2023/08/12 10:40:45;;;;;;;;;;;27.10;99.90;;;;;;5023305;28;19921;-70
2023/08/12 10:43:12;;;;;;;;;;;27.30;99.90;;;;;;5023166;28;19984;-70
2023/08/12 10:45:47;;;;;;;;;;;27.40;99.90;;;;;;5013334;28;19928;-70
2023/08/12 10:48:20;;;;;;;;;;;27.50;99.90;;;;;;5013924;28;19953;-70
2023/08/12 10:50:47;;;;;;;;;;;27.50;99.90;;;;;;5023412;28;19952;-70
2023/08/12 10:53:24;;;;;;;;;;;27.50;99.90;;;;;;5023181;28;19921;-70
2023/08/12 10:55:51;;;;;;;;;;;27.50;99.90;;;;;;5014869;28;20265;-71
2023/08/12 10:58:25;;;;;;;;;;;27.60;99.90;;;;;;5020378;28;19985;-70
2023/08/12 11:00:52;;;;;;;;;;;27.70;99.90;;;;;;5026101;28;20267;-70
2023/08/12 11:03:21;;;;;;;;;;;27.70;99.90;;;;;;5025284;28;20086;-71
2023/08/12 11:05:47;;;;;;;;;;;27.80;99.90;;;;;;5021151;28;19996;-71
2023/08/12 11:08:14;;;;;;;;;;;27.70;99.90;;;;;;5025914;28;20173;-70
2023/08/12 11:10:42;;;;;;;;;;;27.60;99.90;;;;;;5015419;28;19922;-70
2023/08/12 11:13:09;;;;;;;;;;;27.60;99.90;;;;;;5023836;28;19921;-70
2023/08/12 11:15:37;;;;;;;;;;;27.70;99.90;;;;;;5026180;28;20205;-71
2023/08/12 11:18:05;;;;;;;;;;;27.90;99.90;;;;;;5025461;28;20227;-70
2023/08/12 11:20:33;;;;;;;;;;;28.10;99.90;;;;;;5026497;28;19928;-69
2023/08/12 11:23:00;;;;;;;;;;;28.30;99.90;;;;;;5025115;28;19972;-71
2023/08/12 11:25:28;;;;;;;;;;;28.30;99.90;;;;;;5025982;28;19997;-70
2023/08/12 11:28:01;;;;;;;;;;;28.30;99.90;;;;;;5022177;28;19927;-70
2023/08/12 11:30:28;;;;;;;;;;;28.30;99.90;;;;;;5025378;28;19989;-69
2023/08/12 11:32:55;;;;;;;;;;;28.20;99.90;;;;;;5025976;28;19928;-69
2023/08/12 11:35:23;;;;;;;;;;;28.20;99.90;;;;;;5025296;28;19921;-70
2023/08/12 11:37:53;;;;;;;;;;;28.10;99.90;;;;;;5003640;28;19930;-70
2023/08/12 11:40:21;;;;;;;;;;;28.10;99.90;;;;;;5005346;28;19922;-70
2023/08/12 11:42:48;;;;;;;;;;;28.30;99.90;;;;;;5006582;28;19922;-70
2023/08/12 11:45:17;;;;;;;;;;;28.60;99.90;;;;;;5006052;28;20252;-70
2023/08/12 11:47:44;;;;;;;;;;;28.80;99.90;;;;;;5003315;28;20005;-69
2023/08/12 11:50:13;;;;;;;;;;;29.00;99.90;;;;;;5004993;28;19921;-70
2023/08/12 11:52:40;;;;;;;;;;;29.20;99.90;;;;;;5016089;28;20231;-69
2023/08/12 11:55:09;;;;;;;;;;;29.40;99.90;;;;;;5024051;28;19921;-70
2023/08/12 11:57:36;;;;;;;;;;;29.70;99.90;;;;;;5025244;28;19976;-70
2023/08/12 12:00:05;;;;;;;;;;;29.90;99.90;;;;;;5025758;28;19922;-73
2023/08/12 12:02:32;;;;;;;;;;;30.10;99.90;;;;;;5025689;28;20092;-70
2023/08/12 12:04:58;;;;;;;;;;;30.20;99.90;;;;;;5022643;28;20165;-71
2023/08/12 12:07:27;;;;;;;;;;;30.40;99.90;;;;;;5022242;28;19984;-71
2023/08/12 12:09:54;;;;;;;;;;;30.40;99.90;;;;;;5025184;28;19929;-70
2023/08/12 12:12:25;;;;;;;;;;;30.40;99.90;;;;;;5025232;28;20239;-72
2023/08/12 12:14:52;;;;;;;;;;;30.60;99.90;;;;;;5025192;28;21246;-71
2023/08/12 12:17:21;;;;;;;;;;;30.70;99.90;;;;;;5024126;28;19921;-71
2023/08/12 12:19:47;;;;;;;;;;;30.90;99.90;;;;;;5025108;28;19929;-71
2023/08/12 12:22:14;;;;;;;;;;;31.20;99.90;;;;;;5025226;28;19928;-71
2023/08/12 12:24:47;;;;;;;;;;;31.30;99.90;;;;;;5024891;28;19921;-71
2023/08/12 12:27:13;;;;;;;;;;;31.50;99.90;;;;;;5012818;28;19922;-71
2023/08/12 12:29:41;;;;;;;;;;;31.60;99.90;;;;;;5024156;28;19928;-71
2023/08/12 12:32:08;;;;;;;;;;;31.80;99.90;;;;;;5024319;28;20120;-74
2023/08/12 12:34:35;;;;;;;;;;;31.70;99.90;;;;;;5025344;28;19964;-71
2023/08/12 12:37:02;;;;;;;;;;;31.40;99.90;;;;;;5021515;28;19921;-71
2023/08/12 12:39:28;;;;;;;;;;;31.20;99.90;;;;;;5024745;28;19928;-70
2023/08/12 12:41:58;;;;;;;;;;;30.90;99.90;;;;;;5021532;28;19928;-70
2023/08/12 12:44:24;;;;;;;;;;;30.60;99.90;;;;;;5023453;28;19922;-70
2023/08/12 12:46:52;;;;;;;;;;;30.30;99.90;;;;;;5024174;28;19951;-70
2023/08/12 12:49:19;;;;;;;;;;;30.20;99.90;;;;;;5024808;28;19922;-71
2023/08/12 12:51:45;;;;;;;;;;;30.10;99.90;;;;;;5024314;28;19930;-70
2023/08/12 12:54:12;;;;;;;;;;;30.00;99.90;;;;;;5024090;28;19928;-69
2023/08/12 12:56:39;;;;;;;;;;;30.00;99.90;;;;;;5011529;28;19922;-69
2023/08/12 12:59:05;;;;;;;;;;;29.90;99.90;;;;;;5024609;28;19943;-69
2023/08/12 13:01:32;;;;;;;;;;;29.90;99.90;;;;;;5024455;28;19928;-68
2023/08/12 13:04:00;;;;;;;;;;;29.90;99.90;;;;;;5024239;28;20153;-68
2023/08/12 13:06:27;;;;;;;;;;;30.10;99.90;;;;;;5024239;28;19921;-68
2023/08/12 13:08:53;;;;;;;;;;;30.10;99.90;;;;;;5023823;28;20108;-69
2023/08/12 13:11:20;;;;;;;;;;;30.10;99.90;;;;;;5024444;28;19988;-69
2023/08/12 13:13:47;;;;;;;;;;;30.10;99.90;;;;;;5024174;28;20217;-70
2023/08/12 13:16:13;;;;;;;;;;;30.10;99.90;;;;;;5023844;28;19961;-68
2023/08/12 13:18:40;;;;;;;;;;;30.00;99.90;;;;;;5023691;28;19956;-69
2023/08/12 13:21:08;;;;;;;;;;;30.00;99.90;;;;;;5023427;28;20201;-68
2023/08/12 13:23:34;;;;;;;;;;;29.90;99.90;;;;;;5023994;28;19928;-68
2023/08/12 13:26:01;;;;;;;;;;;29.80;99.90;;;;;;5023625;28;19922;-69
2023/08/12 13:28:28;;;;;;;;;;;29.70;99.90;;;;;;5023396;28;19928;-68
2023/08/12 13:30:54;;;;;;;;;;;29.50;99.90;;;;;;5023845;28;19927;-69
2023/08/12 13:33:21;;;;;;;;;;;29.40;99.90;;;;;;5024076;28;19997;-68
2023/08/12 13:35:51;;;;;;;;;;;29.20;99.90;;;;;;5023674;28;19928;-68
2023/08/12 13:38:24;;;;;;;;;;;29.10;99.90;;;;;;5023107;28;19928;-68
2023/08/12 13:40:51;;;;;;;;;;;29.00;99.90;;;;;;5018815;28;20121;-69
2023/08/12 13:43:17;;;;;;;;;;;28.90;99.90;;;;;;5023633;28;19927;-67
2023/08/12 13:45:44;;;;;;;;;;;28.80;99.90;;;;;;5023763;28;19937;-68
2023/08/12 13:48:10;;;;;;;;;;;28.70;99.90;;;;;;5022909;28;19936;-68
2023/08/12 13:50:43;;;;;;;;;;;28.60;99.90;;;;;;5020626;28;19921;-68
2023/08/12 13:53:09;;;;;;;;;;;28.40;99.90;;;;;;5022885;28;19929;-68
2023/08/12 13:55:37;;;;;;;;;;;28.20;99.90;;;;;;5023768;28;19990;-69
2023/08/12 13:58:04;;;;;;;;;;;28.00;99.90;;;;;;5022177;28;20265;-70
2023/08/12 14:00:31;;;;;;;;;;;27.80;99.90;;;;;;5022037;28;19985;-68
2023/08/12 14:02:57;;;;;;;;;;;27.60;99.90;;;;;;5023559;28;19922;-68
2023/08/12 14:05:24;;;;;;;;;;;27.40;99.90;;;;;;5023707;28;19964;-68
2023/08/12 14:07:51;;;;;;;;;;;27.10;99.90;;;;;;5022906;28;19921;-68
2023/08/12 14:10:17;;;;;;;;;;;26.50;99.90;;;;;;5023082;28;20208;-68
2023/08/12 14:12:48;;;;;;;;;;;26.20;99.90;;;;;;5023653;28;20169;-68
2023/08/12 14:15:14;;;;;;;;;;;25.80;99.90;;;;;;5023523;28;19940;-68
2023/08/12 14:17:41;;;;;;;;;;;25.50;99.90;;;;;;5023096;28;19921;-68